createdAt,value
2023-02-26T00:01:32.273Z,61.71
2023-02-26T00:04:02.836Z,62.09
2023-02-26T00:06:34.821Z,61.52
2023-02-26T00:09:02.130Z,61.41
2023-02-26T00:11:29.352Z,61.76
2023-02-26T00:13:56.542Z,61.81
2023-02-26T00:16:35.576Z,61.51
2023-02-26T00:19:06.760Z,61.97
2023-02-26T00:21:35.816Z,62.02
2023-02-26T00:24:03.438Z,61.37
2023-02-26T00:26:31.828Z,61.65
2023-02-26T00:28:59.248Z,61.80
2023-02-26T00:31:27.134Z,61.65
2023-02-26T00:33:56.933Z,61.88
2023-02-26T00:36:45.277Z,61.99
2023-02-26T00:39:45.899Z,62.01
2023-02-26T00:42:13.900Z,62.59
2023-02-26T00:44:41.410Z,62.67
2023-02-26T00:47:56.015Z,62.15
2023-02-26T00:50:26.070Z,62.92
2023-02-26T00:53:28.157Z,62.65
2023-02-26T00:55:54.956Z,62.75
2023-02-26T00:58:21.721Z,62.84
2023-02-26T01:00:48.515Z,62.71
2023-02-26T01:03:15.625Z,62.92
2023-02-26T01:05:42.944Z,62.58
2023-02-26T01:08:21.931Z,62.87
2023-02-26T01:10:49.222Z,63.42
2023-02-26T01:13:16.243Z,62.82
2023-02-26T01:15:50.363Z,63.16
2023-02-26T01:18:33.599Z,62.97
2023-02-26T01:21:06.518Z,63.21
2023-02-26T01:23:40.684Z,62.99
2023-02-26T01:26:15.736Z,63.36
2023-02-26T01:28:42.837Z,62.97
2023-02-26T01:31:24.103Z,63.20
2023-02-26T01:34:09.308Z,63.07
2023-02-26T01:36:44.376Z,63.27
2023-02-26T01:39:29.214Z,62.83
2023-02-26T01:42:09.707Z,63.15
2023-02-26T01:45:11.762Z,63.10
2023-02-26T01:47:52.800Z,63.60
2023-02-26T01:50:25.637Z,63.65
2023-02-26T01:53:04.274Z,63.19
2023-02-26T01:55:31.183Z,63.62
2023-02-26T01:58:00.568Z,64.00
2023-02-26T02:00:27.380Z,63.76
2023-02-26T02:02:54.641Z,63.79
2023-02-26T02:05:31.847Z,63.86
2023-02-26T02:07:59.710Z,64.21
2023-02-26T02:10:28.005Z,63.75
2023-02-26T02:13:19.986Z,63.78
2023-02-26T02:16:20.321Z,63.86
2023-02-26T02:18:46.971Z,64.05
2023-02-26T02:21:39.419Z,64.25
2023-02-26T02:24:54.570Z,63.81
2023-02-26T02:27:58.280Z,64.49
2023-02-26T02:30:57.111Z,64.02
2023-02-26T02:33:31.799Z,64.42
2023-02-26T02:36:07.778Z,64.11
2023-02-26T02:39:04.803Z,64.92
2023-02-26T02:41:55.971Z,64.24
2023-02-26T02:44:26.686Z,64.22
2023-02-26T02:46:57.320Z,64.56
2023-02-26T02:49:33.910Z,64.70
2023-02-26T02:52:20.762Z,64.50
2023-02-26T02:55:02.340Z,64.78
2023-02-26T02:57:38.873Z,64.50
2023-02-26T03:00:10.773Z,64.46
2023-02-26T03:03:01.261Z,64.63
2023-02-26T03:05:28.174Z,64.17
2023-02-26T03:08:05.369Z,64.81
2023-02-26T03:10:32.883Z,64.85
2023-02-26T03:12:59.683Z,64.02
2023-02-26T03:15:52.309Z,64.49
2023-02-26T03:18:52.428Z,64.85
2023-02-26T03:21:35.411Z,64.80
2023-02-26T03:24:29.391Z,65.09
2023-02-26T03:27:28.719Z,64.53
2023-02-26T03:30:10.742Z,65.21
2023-02-26T03:32:50.218Z,64.51
2023-02-26T03:35:56.259Z,64.68
2023-02-26T03:38:37.631Z,65.09
2023-02-26T03:41:14.762Z,64.74
2023-02-26T03:44:14.241Z,64.58
2023-02-26T03:46:46.495Z,65.30
2023-02-26T03:49:20.512Z,64.81
2023-02-26T03:51:48.150Z,64.96
2023-02-26T03:54:33.012Z,64.32
2023-02-26T03:56:59.884Z,64.73
2023-02-26T03:59:26.834Z,64.69
2023-02-26T04:02:06.328Z,65.00
2023-02-26T04:04:52.810Z,64.90
2023-02-26T04:07:22.168Z,65.01
2023-02-26T04:09:51.416Z,65.26
2023-02-26T04:12:36.364Z,64.64
2023-02-26T04:15:05.317Z,64.96
2023-02-26T04:17:32.281Z,64.95
2023-02-26T04:19:59.044Z,64.83
2023-02-26T04:22:25.938Z,64.60
2023-02-26T04:24:52.699Z,64.66
2023-02-26T04:27:19.483Z,64.64
2023-02-26T04:29:46.276Z,65.00
2023-02-26T04:32:13.151Z,64.47
2023-02-26T04:34:40.083Z,64.74
2023-02-26T04:37:06.885Z,64.96
2023-02-26T04:39:33.706Z,64.94
2023-02-26T04:42:00.504Z,64.68
2023-02-26T04:44:27.312Z,64.76
2023-02-26T04:46:54.116Z,64.91
2023-02-26T04:49:20.903Z,64.88
2023-02-26T04:51:47.713Z,64.66
2023-02-26T04:54:14.646Z,64.71
2023-02-26T04:56:41.587Z,64.79
2023-02-26T04:59:08.357Z,64.20
2023-02-26T05:01:35.807Z,64.61
2023-02-26T05:04:02.836Z,64.72
2023-02-26T05:06:29.622Z,64.24
2023-02-26T05:08:56.661Z,64.47
2023-02-26T05:11:23.543Z,64.29
2023-02-26T05:13:50.354Z,65.08
2023-02-26T05:16:17.236Z,64.13
2023-02-26T05:18:44.006Z,64.49
2023-02-26T05:21:10.848Z,64.15
2023-02-26T05:23:37.631Z,64.42
2023-02-26T05:26:04.498Z,64.11
2023-02-26T05:28:31.677Z,64.56
2023-02-26T05:30:58.702Z,63.84
2023-02-26T05:33:26.467Z,64.41
2023-02-26T05:35:53.583Z,64.42
2023-02-26T05:38:20.438Z,64.06
2023-02-26T05:40:47.235Z,64.11
2023-02-26T05:43:14.059Z,64.04
2023-02-26T05:45:40.815Z,64.02
2023-02-26T05:48:07.650Z,64.11
2023-02-26T05:50:34.430Z,64.08
2023-02-26T05:53:01.360Z,64.21
2023-02-26T05:55:28.274Z,64.32
2023-02-26T05:57:55.102Z,64.11
2023-02-26T06:00:21.959Z,64.31
2023-02-26T06:02:48.949Z,64.13
2023-02-26T06:05:15.926Z,64.24
2023-02-26T06:07:42.740Z,64.00
2023-02-26T06:10:10.901Z,63.85
2023-02-26T06:12:38.694Z,64.36
2023-02-26T06:15:07.725Z,63.97
2023-02-26T06:17:35.554Z,64.04
2023-02-26T06:20:03.416Z,64.05
2023-02-26T06:22:30.557Z,64.01
2023-02-26T06:24:57.336Z,64.03
2023-02-26T06:27:25.230Z,64.45
2023-02-26T06:29:52.077Z,64.00
2023-02-26T06:32:18.991Z,64.44
2023-02-26T06:34:45.846Z,64.37
2023-02-26T06:37:12.659Z,64.33
2023-02-26T06:39:39.427Z,64.40
2023-02-26T06:42:06.256Z,63.96
2023-02-26T06:44:33.070Z,64.02
2023-02-26T06:46:59.880Z,64.35
2023-02-26T06:49:26.672Z,64.65
2023-02-26T06:51:53.485Z,64.25
2023-02-26T06:54:20.348Z,64.04
2023-02-26T06:56:47.134Z,64.27
2023-02-26T06:59:15.240Z,64.39
2023-02-26T07:01:42.305Z,64.40
2023-02-26T07:04:09.394Z,63.93
2023-02-26T07:06:36.248Z,64.08
2023-02-26T07:09:03.218Z,64.23
2023-02-26T07:11:30.018Z,64.07
2023-02-26T07:13:56.843Z,64.06
2023-02-26T07:16:24.069Z,64.11
2023-02-26T07:18:50.962Z,64.17
2023-02-26T07:21:17.780Z,64.25
2023-02-26T07:23:44.617Z,63.88
2023-02-26T07:26:11.367Z,64.46
2023-02-26T07:28:38.245Z,64.54
2023-02-26T07:31:05.430Z,64.77
2023-02-26T07:33:32.496Z,64.78
2023-02-26T07:35:59.349Z,64.21
2023-02-26T07:38:26.251Z,63.78
2023-02-26T07:40:56.415Z,63.73
2023-02-26T07:43:24.629Z,63.21
2023-02-26T07:45:52.901Z,63.46
2023-02-26T07:48:20.092Z,63.85
2023-02-26T07:50:47.231Z,63.60
2023-02-26T07:53:14.039Z,63.66
2023-02-26T07:55:40.816Z,62.87
2023-02-26T07:58:07.568Z,63.10
2023-02-26T08:00:34.330Z,63.70
2023-02-26T08:03:01.119Z,63.73
2023-02-26T08:05:30.051Z,63.90
2023-02-26T08:07:57.052Z,63.74
2023-02-26T08:10:24.311Z,63.48
2023-02-26T08:12:51.097Z,63.14
2023-02-26T08:15:17.969Z,62.77
2023-02-26T08:17:44.761Z,63.03
2023-02-26T08:20:12.344Z,62.50
2023-02-26T08:22:39.152Z,62.05
2023-02-26T08:25:06.659Z,61.77
2023-02-26T08:27:33.677Z,61.93
2023-02-26T08:30:00.480Z,62.21
2023-02-26T08:32:28.183Z,61.73
2023-02-26T08:34:55.570Z,61.66
2023-02-26T08:37:24.919Z,61.71
2023-02-26T08:39:52.744Z,61.99
2023-02-26T08:42:20.554Z,61.72
2023-02-26T08:44:47.744Z,62.01
2023-02-26T08:47:19.171Z,61.87
2023-02-26T08:49:51.381Z,61.88
2023-02-26T08:52:18.192Z,61.75
2023-02-26T08:54:44.944Z,62.52
2023-02-26T08:57:11.870Z,62.11
2023-02-26T08:59:38.697Z,62.33
2023-02-26T09:02:05.507Z,62.31
2023-02-26T09:04:32.279Z,62.62
2023-02-26T09:06:59.076Z,62.64
2023-02-26T09:09:25.851Z,62.14
2023-02-26T09:11:52.698Z,61.87
2023-02-26T09:14:19.555Z,62.37
2023-02-26T09:16:46.384Z,62.42
2023-02-26T09:19:13.767Z,62.15
2023-02-26T09:21:40.649Z,61.71
2023-02-26T09:24:07.964Z,61.68
2023-02-26T09:26:34.750Z,61.62
2023-02-26T09:29:01.506Z,61.84
2023-02-26T09:31:28.408Z,61.23
2023-02-26T09:33:55.244Z,61.13
2023-02-26T09:36:22.048Z,61.05
2023-02-26T09:38:48.867Z,60.81
2023-02-26T09:41:19.390Z,60.96
2023-02-26T09:44:08.563Z,61.08
2023-02-26T09:46:51.166Z,60.95
2023-02-26T09:49:49.225Z,60.87
2023-02-26T09:52:32.502Z,60.64
2023-02-26T09:55:06.253Z,60.55
2023-02-26T09:57:36.133Z,60.14
2023-02-26T10:00:17.789Z,60.20
2023-02-26T10:03:14.423Z,59.97
2023-02-26T10:06:14.199Z,60.00
2023-02-26T10:09:03.308Z,59.72
2023-02-26T10:12:15.576Z,59.69
2023-02-26T10:14:53.050Z,59.56
2023-02-26T10:17:23.076Z,59.41
2023-02-26T10:19:57.912Z,59.10
2023-02-26T10:22:33.754Z,58.67
2023-02-26T10:25:13.365Z,58.21
2023-02-26T10:28:33.717Z,58.74
2023-02-26T10:31:49.241Z,58.32
2023-02-26T10:34:44.684Z,58.07
2023-02-26T10:37:24.319Z,57.59
2023-02-26T10:40:00.039Z,57.46
2023-02-26T10:42:33.877Z,57.74
2023-02-26T10:45:42.880Z,57.19
2023-02-26T10:48:44.067Z,57.22
2023-02-26T10:51:26.080Z,56.77
2023-02-26T10:53:59.900Z,56.91
2023-02-26T10:56:31.601Z,56.85
2023-02-26T10:58:58.713Z,56.46
2023-02-26T11:01:29.171Z,56.18
2023-02-26T11:04:19.096Z,56.32
2023-02-26T11:06:54.936Z,55.95
2023-02-26T11:09:36.696Z,55.93
2023-02-26T11:12:10.691Z,55.10
2023-02-26T11:14:37.664Z,55.40
2023-02-26T11:17:12.254Z,55.10
2023-02-26T11:19:44.929Z,54.68
2023-02-26T11:22:14.324Z,54.87
2023-02-26T11:24:46.860Z,54.20
2023-02-26T11:27:27.435Z,54.01
2023-02-26T11:29:59.510Z,54.35
2023-02-26T11:32:46.136Z,53.73
2023-02-26T11:35:15.699Z,53.92
2023-02-26T11:37:49.306Z,54.08
2023-02-26T11:40:39.114Z,54.25
2023-02-26T11:43:12.425Z,53.95
2023-02-26T11:45:43.346Z,53.78
2023-02-26T11:48:16.510Z,53.05
2023-02-26T11:50:48.711Z,53.41
2023-02-26T11:53:34.385Z,52.95
2023-02-26T11:56:08.730Z,53.20
2023-02-26T11:58:39.808Z,53.07
2023-02-26T12:01:09.886Z,52.76
2023-02-26T12:03:40.893Z,52.73
2023-02-26T12:06:22.343Z,52.12
2023-02-26T12:08:49.200Z,52.15
2023-02-26T12:12:10.864Z,52.38
2023-02-26T12:15:24.542Z,52.02
2023-02-26T12:18:22.984Z,52.40
2023-02-26T12:21:07.729Z,52.30
2023-02-26T12:24:15.904Z,52.41
2023-02-26T12:27:17.766Z,52.57
2023-02-26T12:29:55.173Z,52.68
2023-02-26T12:32:31.129Z,52.20
2023-02-26T12:35:14.650Z,51.95
2023-02-26T12:38:02.903Z,51.08
2023-02-26T12:40:53.809Z,51.33
2023-02-26T12:43:56.872Z,51.99
2023-02-26T12:47:24.876Z,52.20
2023-02-26T12:49:54.914Z,52.12
2023-02-26T12:52:33.504Z,51.49
2023-02-26T12:55:18.933Z,50.98
2023-02-26T12:58:25.961Z,51.96
2023-02-26T13:01:16.577Z,50.92
2023-02-26T13:04:05.699Z,50.77
2023-02-26T13:07:10.519Z,50.64
2023-02-26T13:09:55.979Z,50.40
2023-02-26T13:12:37.840Z,50.63
2023-02-26T13:15:52.449Z,51.50
2023-02-26T13:19:00.383Z,51.32
2023-02-26T13:21:55.738Z,50.12
2023-02-26T13:24:46.360Z,50.08
2023-02-26T13:27:15.719Z,50.26
2023-02-26T13:29:54.059Z,50.07
2023-02-26T13:32:26.370Z,50.22
2023-02-26T13:35:04.253Z,50.09
2023-02-26T13:37:39.761Z,49.08
2023-02-26T13:41:03.708Z,49.63
2023-02-26T13:44:12.963Z,50.14
2023-02-26T13:47:21.332Z,50.00
2023-02-26T13:50:06.731Z,49.13
2023-02-26T13:52:36.705Z,49.82
2023-02-26T13:55:05.817Z,49.83
2023-02-26T13:57:53.982Z,49.12
2023-02-26T14:00:36.510Z,49.09
2023-02-26T14:03:26.600Z,49.19
2023-02-26T14:06:24.526Z,49.01
2023-02-26T14:08:56.969Z,48.72
2023-02-26T14:11:43.218Z,48.91
2023-02-26T14:14:22.173Z,47.92
2023-02-26T14:16:55.336Z,48.14
2023-02-26T14:19:28.702Z,47.65
2023-02-26T14:22:18.261Z,48.08
2023-02-26T14:25:00.637Z,47.84
2023-02-26T14:27:40.629Z,47.28
2023-02-26T14:30:10.403Z,47.22
2023-02-26T14:32:54.266Z,46.49
2023-02-26T14:35:29.046Z,46.78
2023-02-26T14:38:08.907Z,47.00
2023-02-26T14:40:49.551Z,47.04
2023-02-26T14:43:23.010Z,46.90
2023-02-26T14:45:50.787Z,47.40
2023-02-26T14:48:22.100Z,47.04
2023-02-26T14:51:26.875Z,47.01
2023-02-26T14:54:30.174Z,46.50
2023-02-26T14:57:02.588Z,46.98
2023-02-26T14:59:54.039Z,46.85
2023-02-26T15:02:31.713Z,46.97
2023-02-26T15:05:41.080Z,47.76
2023-02-26T15:08:54.241Z,47.61
2023-02-26T15:11:51.091Z,47.47
2023-02-26T15:14:41.810Z,47.64
2023-02-26T15:18:02.357Z,48.39
2023-02-26T15:20:59.163Z,48.22
2023-02-26T15:24:01.187Z,48.67
2023-02-26T15:26:33.993Z,48.42
2023-02-26T15:29:05.638Z,48.26
2023-02-26T15:31:39.171Z,48.25
2023-02-26T15:34:06.041Z,48.05
2023-02-26T15:36:32.986Z,48.04
2023-02-26T15:39:04.049Z,48.04
2023-02-26T15:41:32.709Z,47.33
2023-02-26T15:44:08.082Z,47.74
2023-02-26T15:46:39.323Z,47.07
2023-02-26T15:49:25.127Z,47.88
2023-02-26T15:51:53.250Z,47.69
2023-02-26T15:54:24.253Z,47.37
2023-02-26T15:56:51.562Z,47.74
2023-02-26T15:59:25.783Z,47.66
2023-02-26T16:01:52.885Z,48.77
2023-02-26T16:04:22.338Z,48.32
2023-02-26T16:06:57.480Z,48.25
2023-02-26T16:09:35.374Z,48.35
2023-02-26T16:12:12.409Z,48.14
2023-02-26T16:14:44.221Z,48.37
2023-02-26T16:17:25.282Z,48.33
2023-02-26T16:19:54.056Z,48.39
2023-02-26T16:23:05.614Z,48.90
2023-02-26T16:25:56.574Z,48.78
2023-02-26T16:28:43.875Z,48.83
2023-02-26T16:31:19.089Z,48.83
2023-02-26T16:34:03.112Z,48.94
2023-02-26T16:36:41.629Z,49.09
2023-02-26T16:39:08.575Z,48.95
2023-02-26T16:41:39.460Z,48.92
2023-02-26T16:44:32.270Z,48.96
2023-02-26T16:47:01.891Z,49.28
2023-02-26T16:49:33.593Z,49.17
2023-02-26T16:52:01.637Z,49.28
2023-02-26T16:54:38.988Z,49.02
2023-02-26T16:57:14.413Z,49.22
2023-02-26T16:59:44.349Z,49.17
2023-02-26T17:02:22.560Z,49.32
2023-02-26T17:04:55.084Z,49.48
2023-02-26T17:07:28.067Z,49.40
2023-02-26T17:10:00.627Z,49.72
2023-02-26T17:12:40.256Z,49.93
2023-02-26T17:15:20.781Z,49.99
2023-02-26T17:17:48.642Z,50.02
2023-02-26T17:20:16.191Z,50.06
2023-02-26T17:22:44.972Z,49.98
2023-02-26T17:25:17.695Z,50.08
2023-02-26T17:27:45.998Z,50.33
2023-02-26T17:30:20.403Z,50.23
2023-02-26T17:32:47.266Z,50.50
2023-02-26T17:35:16.077Z,50.48
2023-02-26T17:37:45.006Z,50.49
2023-02-26T17:40:17.462Z,50.54
2023-02-26T17:42:45.132Z,50.71
2023-02-26T17:45:11.867Z,50.72
2023-02-26T17:47:38.680Z,50.93
2023-02-26T17:50:52.209Z,50.92
2023-02-26T17:53:21.383Z,51.25
2023-02-26T17:55:52.228Z,51.30
2023-02-26T17:58:26.718Z,51.32
2023-02-26T18:00:53.955Z,51.31
2023-02-26T18:03:20.973Z,51.39
2023-02-26T18:05:49.793Z,51.30
2023-02-26T18:08:24.583Z,51.31
2023-02-26T18:10:52.719Z,51.68
2023-02-26T18:13:20.388Z,51.66
2023-02-26T18:15:48.433Z,51.50
2023-02-26T18:18:15.909Z,51.95
2023-02-26T18:20:44.058Z,51.51
2023-02-26T18:23:13.654Z,51.99
2023-02-26T18:25:41.719Z,51.80
2023-02-26T18:28:17.344Z,52.05
2023-02-26T18:30:44.804Z,52.01
2023-02-26T18:33:12.994Z,52.26
2023-02-26T18:35:45.788Z,52.27
2023-02-26T18:38:19.363Z,52.21
2023-02-26T18:40:47.210Z,52.57
2023-02-26T18:43:14.440Z,52.81
2023-02-26T18:45:47.924Z,52.22
2023-02-26T18:48:20.091Z,52.88
2023-02-26T18:50:48.076Z,52.76
2023-02-26T18:53:17.147Z,52.79
2023-02-26T18:55:44.622Z,52.90
2023-02-26T18:58:11.621Z,52.59
2023-02-26T19:00:38.465Z,52.83
2023-02-26T19:03:05.322Z,52.92
2023-02-26T19:05:32.101Z,52.75
2023-02-26T19:08:00.977Z,52.92
2023-02-26T19:10:31.609Z,52.82
2023-02-26T19:12:59.011Z,52.76
2023-02-26T19:15:25.778Z,53.00
2023-02-26T19:17:52.798Z,52.88
2023-02-26T19:20:19.702Z,53.01
2023-02-26T19:22:47.070Z,53.07
2023-02-26T19:25:14.297Z,53.45
2023-02-26T19:27:41.074Z,53.23
2023-02-26T19:30:09.207Z,53.05
2023-02-26T19:32:36.082Z,53.40
2023-02-26T19:35:02.995Z,53.46
2023-02-26T19:37:29.928Z,53.63
2023-02-26T19:39:56.696Z,53.39
2023-02-26T19:42:24.514Z,53.36
2023-02-26T19:44:51.759Z,53.33
2023-02-26T19:47:18.578Z,53.40
2023-02-26T19:49:45.356Z,53.46
2023-02-26T19:52:12.163Z,53.92
2023-02-26T19:54:39.027Z,53.72
2023-02-26T19:57:05.853Z,53.97
2023-02-26T19:59:32.694Z,53.94
2023-02-26T20:01:59.508Z,53.99
2023-02-26T20:04:26.332Z,54.17
2023-02-26T20:06:53.120Z,54.26
2023-02-26T20:09:20.243Z,54.38
2023-02-26T20:11:47.062Z,54.11
2023-02-26T20:14:14.001Z,54.11
2023-02-26T20:16:41.361Z,53.95
2023-02-26T20:19:08.145Z,54.57
2023-02-26T20:21:35.051Z,54.35
2023-02-26T20:24:01.857Z,54.65
2023-02-26T20:26:28.687Z,54.54
2023-02-26T20:28:55.433Z,54.57
2023-02-26T20:31:22.317Z,54.38
2023-02-26T20:33:49.168Z,54.60
2023-02-26T20:36:16.412Z,54.93
2023-02-26T20:38:43.225Z,54.88
2023-02-26T20:41:10.446Z,55.33
2023-02-26T20:43:37.429Z,55.19
2023-02-26T20:46:04.318Z,54.78
2023-02-26T20:48:32.615Z,55.08
2023-02-26T20:51:01.757Z,55.30
2023-02-26T20:53:28.795Z,54.66
2023-02-26T20:55:56.424Z,55.32
2023-02-26T20:58:24.777Z,54.82
2023-02-26T21:00:55.617Z,55.12
2023-02-26T21:03:22.506Z,55.54
2023-02-26T21:05:49.423Z,55.61
2023-02-26T21:08:16.230Z,54.98
2023-02-26T21:10:43.100Z,55.71
2023-02-26T21:13:10.054Z,55.32
2023-02-26T21:15:37.026Z,55.36
2023-02-26T21:18:04.004Z,55.61
2023-02-26T21:20:30.981Z,55.62
2023-02-26T21:22:58.748Z,55.89
2023-02-26T21:25:25.615Z,55.60
2023-02-26T21:27:52.469Z,55.53
2023-02-26T21:30:19.902Z,56.32
2023-02-26T21:32:46.729Z,56.42
2023-02-26T21:35:15.935Z,56.23
2023-02-26T21:37:44.659Z,56.02
2023-02-26T21:40:13.353Z,55.82
2023-02-26T21:42:40.966Z,56.28
2023-02-26T21:45:08.518Z,56.09
2023-02-26T21:47:35.297Z,56.35
2023-02-26T21:50:02.153Z,56.35
2023-02-26T21:52:29.062Z,56.33
2023-02-26T21:54:58.969Z,56.20
2023-02-26T21:57:26.524Z,56.90
2023-02-26T21:59:53.414Z,56.10
2023-02-26T22:02:20.245Z,57.00
2023-02-26T22:04:47.053Z,56.53
2023-02-26T22:07:13.876Z,56.32
2023-02-26T22:09:40.709Z,56.32
2023-02-26T22:12:07.792Z,56.58
2023-02-26T22:14:34.603Z,56.01
2023-02-26T22:17:01.465Z,56.62
2023-02-26T22:19:28.330Z,56.79
2023-02-26T22:21:55.185Z,56.94
2023-02-26T22:24:23.043Z,56.82
2023-02-26T22:26:49.885Z,56.61
2023-02-26T22:29:19.202Z,57.21
2023-02-26T22:31:47.257Z,56.75
2023-02-26T22:34:14.869Z,56.89
2023-02-26T22:36:41.861Z,57.14
2023-02-26T22:39:08.836Z,57.37
2023-02-26T22:41:36.562Z,57.48
2023-02-26T22:44:04.436Z,56.94
2023-02-26T22:46:32.229Z,57.70
2023-02-26T22:48:59.049Z,57.37
2023-02-26T22:51:28.008Z,57.31
2023-02-26T22:53:55.583Z,57.30
2023-02-26T22:56:22.373Z,57.71
2023-02-26T22:58:49.443Z,57.13
2023-02-26T23:01:16.268Z,57.07
2023-02-26T23:03:43.262Z,57.32
2023-02-26T23:06:10.523Z,57.00
2023-02-26T23:08:37.847Z,57.77
2023-02-26T23:11:05.557Z,57.18
2023-02-26T23:13:35.502Z,57.27
2023-02-26T23:16:09.324Z,57.08
2023-02-26T23:18:37.069Z,57.21
2023-02-26T23:21:06.488Z,57.79
2023-02-26T23:23:33.620Z,57.67
2023-02-26T23:26:00.429Z,57.46
2023-02-26T23:28:27.221Z,57.80
2023-02-26T23:30:54.029Z,57.19
2023-02-26T23:33:20.948Z,57.22
2023-02-26T23:35:48.091Z,57.83
2023-02-26T23:38:15.035Z,57.70
2023-02-26T23:40:41.810Z,57.33
2023-02-26T23:43:08.595Z,57.48
2023-02-26T23:45:35.460Z,57.73
2023-02-26T23:48:02.265Z,57.78
2023-02-26T23:50:29.092Z,57.84
2023-02-26T23:52:55.923Z,58.02
2023-02-26T23:55:22.883Z,57.80
2023-02-26T23:57:49.705Z,57.75
